Time;durP1;ratioP1;P1;durP2;ratioP2;P2;SDS_P1;SDS_P2;PMS_P1;PMS_P2;Temp;Humidity;BMP_temperature;BMP_pressure;BME280_temperature;BME280_humidity;BME280_pressure;Samples;Min_cycle;Max_cycle;Signal;HPM_P1;HPM_P2
2021/07/06 00:01:57;;;;;;;;;3.75;3.75;;;;;21.99;62.75;99962.75;5050613;28;45482;-73
2021/07/06 00:04:22;;;;;;;;;4.00;4.00;;;;;21.97;62.39;99954.94;5045242;28;45281;-74
2021/07/06 00:06:48;;;;;;;;;3.00;3.00;;;;;21.96;63.08;99982.38;5050794;28;46232;-71
2021/07/06 00:09:13;;;;;;;;;3.00;3.00;;;;;21.92;62.48;99961.63;5049828;28;59994;-72
2021/07/06 00:11:38;;;;;;;;;2.25;2.25;;;;;21.94;62.86;99962.31;5038422;28;45347;-74
2021/07/06 00:14:04;;;;;;;;;2.75;2.75;;;;;21.91;62.66;99967.88;5055866;28;60672;-74
2021/07/06 00:16:29;;;;;;;;;4.00;2.25;;;;;21.92;62.43;99965.09;5059161;28;53416;-74
2021/07/06 00:18:55;;;;;;;;;2.25;2.25;;;;;21.95;62.20;99948.94;5059629;28;45231;-72
2021/07/06 00:21:20;;;;;;;;;2.50;2.00;;;;;21.94;62.11;99943.81;5059221;28;53261;-71
2021/07/06 00:23:46;;;;;;;;;3.50;2.00;;;;;21.91;62.04;99929.03;5059517;28;45900;-71
2021/07/06 00:26:11;;;;;;;;;2.00;2.00;;;;;21.90;62.00;99926.53;5058918;28;63685;-71
2021/07/06 00:28:36;;;;;;;;;2.00;1.50;;;;;21.88;61.65;99933.75;5058798;28;58478;-71
2021/07/06 00:31:02;;;;;;;;;3.00;3.00;;;;;21.89;61.83;99928.34;5059233;28;46274;-72
2021/07/06 00:33:30;;;;;;;;;3.25;2.75;;;;;21.88;61.30;99900.22;5039563;28;45587;-72
2021/07/06 00:35:58;;;;;;;;;3.50;2.00;;;;;21.89;61.37;99911.63;5059010;28;45422;-72
2021/07/06 00:38:24;;;;;;;;;1.75;1.75;;;;;21.90;60.97;99900.91;5058951;28;45225;-70
2021/07/06 00:40:52;;;;;;;;;3.50;3.00;;;;;21.93;61.15;99913.03;5045521;28;45321;-71
2021/07/06 00:43:17;;;;;;;;;2.00;2.00;;;;;21.95;61.13;99901.34;5055277;28;45517;-71
2021/07/06 00:45:43;;;;;;;;;2.00;1.25;;;;;21.92;60.92;99895.47;5058760;28;53222;-71
2021/07/06 00:48:08;;;;;;;;;1.00;1.00;;;;;21.89;61.07;99923.03;5058013;28;45497;-72
2021/07/06 00:50:33;;;;;;;;;2.25;2.00;;;;;21.83;60.62;99918.31;5047991;28;58148;-72
2021/07/06 00:52:59;;;;;;;;;3.50;1.75;;;;;21.81;60.46;99923.69;5061814;28;63992;-72
2021/07/06 00:55:24;;;;;;;;;2.00;1.25;;;;;21.78;60.22;99916.03;5061539;28;46361;-72
2021/07/06 00:57:50;;;;;;;;;1.75;1.75;;;;;21.79;60.36;99935.38;5063728;28;60802;-71
2021/07/06 01:00:18;;;;;;;;;3.00;2.00;;;;;21.77;60.54;99919.66;5069590;28;54786;-71
2021/07/06 01:02:43;;;;;;;;;2.50;1.00;;;;;21.74;60.61;99919.91;5059477;28;45438;-71
2021/07/06 01:05:10;;;;;;;;;2.00;1.00;;;;;21.71;60.19;99929.94;5057280;28;46237;-71
2021/07/06 01:07:36;;;;;;;;;0.75;0.75;;;;;21.69;60.46;99916.00;5039952;28;45682;-71
2021/07/06 01:10:03;;;;;;;;;3.25;1.25;;;;;21.70;60.47;99937.03;5062693;28;45420;-71
2021/07/06 01:12:31;;;;;;;;;1.75;1.75;;;;;21.67;59.62;99942.59;5060505;28;45486;-71
2021/07/06 01:14:56;;;;;;;;;1.00;1.00;;;;;21.64;60.41;99936.72;5062241;28;46522;-71
2021/07/06 01:17:29;;;;;;;;;1.00;1.00;;;;;21.59;60.31;99930.97;5060867;28;45666;-71
2021/07/06 01:19:57;;;;;;;;;1.00;1.00;;;;;21.54;60.21;99934.88;5041268;28;45403;-70
2021/07/06 01:22:32;;;;;;;;;1.00;1.00;;;;;21.47;59.93;99939.00;5060563;28;45182;-70
2021/07/06 01:24:58;;;;;;;;;0.75;0.75;;;;;21.44;59.95;99938.44;5062491;28;45533;-71
2021/07/06 01:27:24;;;;;;;;;0.00;0.00;;;;;21.37;60.11;99950.50;5061210;28;45170;-70
2021/07/06 01:29:49;;;;;;;;;2.00;2.00;;;;;21.32;60.24;99961.47;5062136;28;45385;-70
2021/07/06 01:32:15;;;;;;;;;0.00;0.00;;;;;21.23;60.08;99963.06;5062195;28;45515;-70
2021/07/06 01:34:40;;;;;;;;;1.25;1.00;;;;;21.18;60.07;99952.00;5062232;28;45251;-70
2021/07/06 01:37:06;;;;;;;;;0.50;0.50;;;;;21.19;60.09;99942.28;5060912;28;64593;-70
2021/07/06 01:39:31;;;;;;;;;0.75;0.50;;;;;21.17;60.58;99945.06;5055007;28;54045;-67
2021/07/06 01:41:56;;;;;;;;;0.50;0.50;;;;;21.18;60.51;99953.81;5054589;28;60397;-68
2021/07/06 01:44:23;;;;;;;;;0.00;0.00;;;;;21.17;60.47;99938.94;5054318;28;46747;-70
2021/07/06 01:46:49;;;;;;;;;1.00;1.00;;;;;21.11;60.58;99957.94;5061058;28;45607;-69
2021/07/06 01:49:14;;;;;;;;;1.00;1.00;;;;;21.10;60.54;99951.00;5061914;28;45482;-69
2021/07/06 01:51:40;;;;;;;;;1.00;1.00;;;;;21.06;60.50;99950.41;5061738;28;45559;-69
2021/07/06 01:54:06;;;;;;;;;0.75;0.75;;;;;21.06;60.58;99946.94;5062014;28;45644;-69
2021/07/06 01:56:41;;;;;;;;;1.00;1.00;;;;;21.01;60.97;99957.03;5061787;28;45639;-69
2021/07/06 01:59:07;;;;;;;;;0.00;0.00;;;;;20.98;61.23;99967.84;5042305;28;45477;-71
2021/07/06 02:01:33;;;;;;;;;2.00;0.00;;;;;20.98;60.93;99973.13;5060624;28;45510;-70
2021/07/06 02:03:58;;;;;;;;;1.00;1.00;;;;;20.98;60.42;99983.69;5058589;28;45461;-70
2021/07/06 02:06:24;;;;;;;;;0.50;0.50;;;;;20.89;60.43;100015.19;5038337;28;57543;-69
2021/07/06 02:08:49;;;;;;;;;2.25;1.00;;;;;20.85;60.72;100016.44;5056342;28;50100;-78
2021/07/06 02:11:14;;;;;;;;;0.00;0.00;;;;;20.82;60.51;100014.03;5059319;28;45209;-72
2021/07/06 02:13:40;;;;;;;;;0.00;0.00;;;;;20.68;60.69;100018.75;5061793;28;46343;-71
2021/07/06 02:16:05;;;;;;;;;0.75;0.00;;;;;20.60;60.83;100012.28;5058079;28;62319;-74
2021/07/06 02:18:32;;;;;;;;;0.00;0.00;;;;;20.51;60.92;100026.22;5061127;28;50913;-73
2021/07/06 02:20:58;;;;;;;;;1.25;0.00;;;;;20.45;60.64;100034.66;5061201;28;45613;-74
2021/07/06 02:23:23;;;;;;;;;1.25;0.50;;;;;20.32;60.99;100055.84;5040042;28;46686;-73
2021/07/06 02:25:49;;;;;;;;;0.00;0.00;;;;;20.34;61.03;100039.88;5060103;28;45333;-74
2021/07/06 02:28:15;;;;;;;;;0.00;0.00;;;;;20.33;61.37;100039.06;5045120;28;45396;-74
2021/07/06 02:30:40;;;;;;;;;0.00;0.00;;;;;20.33;60.91;100051.41;5060993;28;45501;-73
2021/07/06 02:33:06;;;;;;;;;0.75;0.00;;;;;20.34;60.79;100056.56;5060692;28;66091;-74
2021/07/06 02:35:31;;;;;;;;;0.25;0.25;;;;;20.32;61.17;100055.00;5048460;28;54770;-74
2021/07/06 02:37:57;;;;;;;;;0.00;0.00;;;;;20.23;61.03;100055.75;5060752;28;59700;-73
2021/07/06 02:40:23;;;;;;;;;0.00;0.00;;;;;20.18;60.65;100052.59;5033199;28;45276;-72
2021/07/06 02:42:48;;;;;;;;;1.00;0.50;;;;;20.17;60.31;100049.13;5054751;28;46037;-72
2021/07/06 02:45:15;;;;;;;;;0.25;0.25;;;;;20.11;60.42;100065.44;5056948;28;45217;-74
2021/07/06 02:47:40;;;;;;;;;3.00;1.00;;;;;20.07;60.15;100049.97;5053090;28;45358;-74
2021/07/06 02:50:07;;;;;;;;;1.50;0.00;;;;;20.03;59.97;100052.84;5060851;28;45249;-73
2021/07/06 02:52:32;;;;;;;;;0.00;0.00;;;;;20.01;59.47;100052.13;5060794;28;46309;-74
2021/07/06 02:54:58;;;;;;;;;0.00;0.00;;;;;20.01;59.90;100053.91;5060963;28;45371;-74
2021/07/06 02:57:41;;;;;;;;;0.25;0.25;;;;;19.95;60.15;100064.94;5042124;28;51005;-74
2021/07/06 03:00:16;;;;;;;;;0.50;0.50;;;;;19.95;60.57;100060.50;5048983;28;45238;-74
2021/07/06 03:02:46;;;;;;;;;0.50;0.50;;;;;19.91;60.60;100056.44;5060237;28;46401;-72
2021/07/06 03:05:12;;;;;;;;;0.00;0.00;;;;;19.86;60.90;100053.31;5057598;28;45485;-74
2021/07/06 03:07:38;;;;;;;;;0.00;0.00;;;;;19.85;61.60;100070.09;5062180;28;45304;-74
2021/07/06 03:10:08;;;;;;;;;0.00;0.00;;;;;19.73;61.20;100060.47;5049442;28;45425;-74
2021/07/06 03:12:33;;;;;;;;;0.00;0.00;;;;;19.75;61.15;100067.31;5058372;28;45327;-73
2021/07/06 03:14:58;;;;;;;;;2.25;0.00;;;;;19.73;61.31;100063.13;5038900;28;45289;-73
2021/07/06 03:17:24;;;;;;;;;0.00;0.00;;;;;19.69;61.36;100057.25;5058213;28;45308;-70
2021/07/06 03:19:49;;;;;;;;;0.00;0.00;;;;;19.68;60.91;100041.53;5060305;28;55012;-70
2021/07/06 03:22:14;;;;;;;;;0.50;0.25;;;;;19.64;60.84;100069.94;5059533;28;62007;-69
2021/07/06 03:24:40;;;;;;;;;1.25;0.75;;;;;19.62;60.71;100049.91;5060230;28;56765;-69
2021/07/06 03:27:05;;;;;;;;;0.00;0.00;;;;;19.56;60.50;100040.66;5060378;28;45320;-69
2021/07/06 03:29:31;;;;;;;;;0.50;0.00;;;;;19.54;60.60;100053.13;5036758;28;49431;-74
2021/07/06 03:31:56;;;;;;;;;1.00;1.00;;;;;19.50;60.98;100054.28;5056441;28;46044;-65
2021/07/06 03:34:21;;;;;;;;;1.25;1.00;;;;;19.46;61.26;100050.22;5060175;28;45343;-70
2021/07/06 03:36:47;;;;;;;;;1.25;0.50;;;;;19.43;61.44;100053.91;5059967;28;45372;-70
2021/07/06 03:39:12;;;;;;;;;1.00;1.00;;;;;19.30;61.22;100045.25;5055639;28;52155;-70
2021/07/06 03:41:38;;;;;;;;;0.75;0.75;;;;;19.32;61.01;100037.22;5055598;28;46306;-76
2021/07/06 03:44:03;;;;;;;;;0.00;0.00;;;;;19.18;60.65;100032.13;5060147;28;45241;-69
2021/07/06 03:46:29;;;;;;;;;2.50;1.00;;;;;19.20;61.01;100033.69;5059739;28;45248;-69
2021/07/06 03:48:54;;;;;;;;;0.00;0.00;;;;;19.21;60.86;100034.53;5053137;28;45348;-69
2021/07/06 03:51:20;;;;;;;;;0.00;0.00;;;;;19.22;60.70;100044.13;5036968;28;55033;-70
2021/07/06 03:53:45;;;;;;;;;1.50;1.00;;;;;19.23;60.53;100053.72;5043267;28;55866;-69
2021/07/06 03:56:10;;;;;;;;;0.25;0.25;;;;;19.21;59.91;100051.19;5059092;28;55189;-78
2021/07/06 03:58:36;;;;;;;;;0.25;0.25;;;;;19.06;59.30;100062.88;5059762;28;46040;-68
2021/07/06 04:01:02;;;;;;;;;2.00;2.00;;;;;19.03;59.92;100058.69;5058597;28;62270;-67
2021/07/06 04:03:27;;;;;;;;;3.00;2.00;;;;;19.03;59.53;100053.41;5041506;28;45451;-67
2021/07/06 04:05:53;;;;;;;;;1.00;0.75;;;;;19.07;59.75;100062.75;5056655;28;45363;-69
2021/07/06 04:08:18;;;;;;;;;1.25;1.25;;;;;19.09;59.57;100060.84;5059241;28;63434;-67
2021/07/06 04:10:43;;;;;;;;;3.25;1.50;;;;;19.12;59.07;100060.63;5048586;28;60862;-68
2021/07/06 04:13:09;;;;;;;;;1.25;0.75;;;;;19.13;58.35;100058.81;5058735;28;57771;-66
2021/07/06 04:15:34;;;;;;;;;1.00;0.25;;;;;19.08;58.71;100074.97;5058857;28;45370;-66
2021/07/06 04:18:00;;;;;;;;;10.00;9.00;;;;;18.97;57.68;100074.06;5056302;28;64621;-65
2021/07/06 04:20:25;;;;;;;;;1.00;1.00;;;;;18.95;58.32;100075.97;5055973;28;67083;-65
2021/07/06 04:22:51;;;;;;;;;1.25;1.25;;;;;18.83;57.45;100078.56;5056912;28;45348;-65
2021/07/06 04:25:16;;;;;;;;;2.00;2.00;;;;;18.77;57.91;100083.41;5056956;28;45344;-65
2021/07/06 04:27:42;;;;;;;;;2.00;1.00;;;;;18.69;57.77;100096.28;5059683;28;45505;-65
2021/07/06 04:30:08;;;;;;;;;0.75;0.75;;;;;18.66;57.69;100091.25;5060042;28;46262;-65
2021/07/06 04:32:33;;;;;;;;;2.75;1.75;;;;;18.70;57.87;100098.81;5061469;28;45662;-65
2021/07/06 04:34:59;;;;;;;;;1.00;1.00;;;;;18.73;57.65;100100.38;5062458;28;45261;-64
2021/07/06 04:37:24;;;;;;;;;5.00;2.50;;;;;18.71;57.59;100095.22;5062149;28;62131;-66
2021/07/06 04:39:49;;;;;;;;;2.75;1.00;;;;;18.73;57.17;100103.00;5053685;28;62667;-66
2021/07/06 04:42:16;;;;;;;;;2.00;2.00;;;;;18.67;57.82;100100.81;5061769;28;45313;-67
2021/07/06 04:44:42;;;;;;;;;2.00;1.00;;;;;18.68;57.58;100105.13;5062012;28;45420;-66
2021/07/06 04:47:07;;;;;;;;;3.75;2.50;;;;;18.72;57.35;100110.06;5038586;28;45648;-67
2021/07/06 04:49:33;;;;;;;;;2.75;1.00;;;;;18.72;56.95;100099.53;5055118;28;45439;-65
2021/07/06 04:51:58;;;;;;;;;1.50;1.50;;;;;18.70;56.86;100119.03;5059887;28;45425;-65
2021/07/06 04:54:24;;;;;;;;;1.00;1.00;;;;;18.63;56.59;100113.34;5059432;28;53915;-65
2021/07/06 04:56:52;;;;;;;;;4.75;1.50;;;;;18.61;57.06;100117.00;5060056;28;45369;-65
2021/07/06 04:59:18;;;;;;;;;1.00;1.00;;;;;18.67;56.74;100124.50;5047586;28;45662;-67
2021/07/06 05:01:44;;;;;;;;;3.00;1.00;;;;;18.74;56.81;100131.00;5053862;28;45380;-67
2021/07/06 05:04:09;;;;;;;;;1.50;1.00;;;;;18.79;55.68;100128.88;5035693;28;57544;-67
2021/07/06 05:06:34;;;;;;;;;1.75;1.00;;;;;18.87;55.62;100120.44;5023323;28;65764;-67
2021/07/06 05:09:00;;;;;;;;;2.00;1.00;;;;;18.89;55.57;100123.81;5036098;28;65957;-67
2021/07/06 05:11:25;;;;;;;;;2.75;2.00;;;;;18.89;55.45;100123.81;5041247;28;50686;-67
2021/07/06 05:13:51;;;;;;;;;1.00;1.00;;;;;18.93;55.26;100133.16;5061751;28;45470;-67
2021/07/06 05:16:16;;;;;;;;;3.00;2.75;;;;;18.83;55.11;100125.09;5060760;28;60966;-65
2021/07/06 05:18:42;;;;;;;;;4.00;1.00;;;;;18.81;54.27;100119.06;5043647;28;46017;-75
2021/07/06 05:21:07;;;;;;;;;2.25;2.25;;;;;18.76;55.24;100124.69;5040629;28;45186;-72
2021/07/06 05:23:32;;;;;;;;;5.50;0.25;;;;;18.79;54.39;100120.97;5039399;28;45344;-70
2021/07/06 05:25:58;;;;;;;;;4.50;1.50;;;;;18.74;54.89;100138.91;5029702;28;45289;-67
2021/07/06 05:28:24;;;;;;;;;0.75;0.75;;;;;18.72;54.74;100130.28;5041390;28;68751;-73
2021/07/06 05:30:50;;;;;;;;;4.75;2.00;;;;;18.63;55.37;100137.03;5061203;28;45363;-72
2021/07/06 05:33:15;;;;;;;;;8.50;3.75;;;;;18.64;54.36;100141.38;5061780;28;45605;-72
2021/07/06 05:35:40;;;;;;;;;5.25;2.00;;;;;18.49;54.96;100142.41;5061470;28;46930;-69
2021/07/06 05:38:06;;;;;;;;;3.00;2.00;;;;;18.46;55.25;100156.59;5039458;28;46254;-69
2021/07/06 05:40:32;;;;;;;;;2.75;2.75;;;;;18.48;55.26;100132.81;5040801;28;45313;-68
2021/07/06 05:42:58;;;;;;;;;3.75;2.50;;;;;18.50;54.41;100146.72;5061442;28;45268;-69
2021/07/06 05:45:23;;;;;;;;;1.00;1.00;;;;;18.59;54.31;100164.47;5039435;28;46899;-66
2021/07/06 05:47:49;;;;;;;;;3.25;1.00;;;;;18.60;54.23;100145.09;5056641;28;52360;-68
2021/07/06 05:50:15;;;;;;;;;2.00;2.00;;;;;18.62;53.79;100150.25;5054204;28;65763;-68
2021/07/06 05:52:41;;;;;;;;;4.25;3.00;;;;;18.64;54.02;100154.53;5040500;28;45470;-66
2021/07/06 05:55:07;;;;;;;;;4.50;3.00;;;;;18.62;53.93;100156.38;5024356;28;45266;-68
2021/07/06 05:57:32;;;;;;;;;2.00;1.50;;;;;18.62;53.21;100150.25;5052822;28;47142;-67
2021/07/06 06:00:01;;;;;;;;;3.00;2.00;;;;;18.71;53.37;100158.38;5050407;28;45406;-71
2021/07/06 06:02:27;;;;;;;;;1.50;1.00;;;;;18.80;53.00;100177.94;5039719;28;45444;-71
2021/07/06 06:04:52;;;;;;;;;4.25;2.25;;;;;18.90;53.04;100163.19;5031151;28;45703;-71
2021/07/06 06:07:17;;;;;;;;;1.00;1.00;;;;;18.94;52.26;100166.44;5032677;28;45441;-75
2021/07/06 06:09:43;;;;;;;;;4.50;4.00;;;;;18.93;52.83;100168.25;5004522;28;45675;-68
2021/07/06 06:12:11;;;;;;;;;5.00;3.00;;;;;19.05;52.27;100177.91;5047860;28;46271;-71
2021/07/06 06:14:37;;;;;;;;;4.25;2.00;;;;;19.12;52.04;100179.16;5049451;28;45445;-71
2021/07/06 06:17:03;;;;;;;;;3.00;2.00;;;;;19.10;51.95;100177.56;5049671;28;45581;-66
2021/07/06 06:19:28;;;;;;;;;3.50;1.75;;;;;19.07;51.88;100172.53;5054592;28;45411;-67
2021/07/06 06:21:54;;;;;;;;;5.50;3.75;;;;;19.01;51.73;100163.25;5060570;28;45467;-67
2021/07/06 06:24:19;;;;;;;;;2.00;2.00;;;;;18.90;52.16;100181.63;5060830;28;45245;-67
2021/07/06 06:26:47;;;;;;;;;4.75;3.75;;;;;18.79;52.24;100177.09;5060706;28;45429;-66
2021/07/06 06:29:12;;;;;;;;;4.00;1.50;;;;;18.81;52.73;100184.91;5046223;28;45404;-67
2021/07/06 06:31:38;;;;;;;;;2.75;2.75;;;;;18.87;52.84;100184.47;5060115;28;46003;-66
2021/07/06 06:34:03;;;;;;;;;4.50;3.00;;;;;18.83;52.63;100198.81;5059966;28;45456;-67
2021/07/06 06:36:28;;;;;;;;;6.00;2.00;;;;;18.77;52.48;100199.22;5060119;28;50084;-67
2021/07/06 06:38:54;;;;;;;;;4.00;1.75;;;;;18.81;52.65;100200.69;5056144;28;56634;-66
2021/07/06 06:41:19;;;;;;;;;4.50;3.00;;;;;18.90;52.60;100196.59;5050088;28;45753;-66
2021/07/06 06:43:44;;;;;;;;;4.25;3.00;;;;;18.86;52.48;100217.03;5051507;28;65675;-66
2021/07/06 06:46:10;;;;;;;;;6.25;6.00;;;;;18.81;52.58;100213.84;5047610;28;60884;-65
2021/07/06 06:48:35;;;;;;;;;3.75;3.00;;;;;18.83;52.09;100212.81;5058287;28;51483;-67
2021/07/06 06:51:01;;;;;;;;;7.25;1.75;;;;;18.77;52.40;100221.13;5059948;28;45477;-66
2021/07/06 06:53:26;;;;;;;;;3.75;3.75;;;;;18.78;51.98;100214.06;5055133;28;61315;-66
2021/07/06 06:55:51;;;;;;;;;6.00;2.25;;;;;18.67;52.08;100235.06;5053170;28;48668;-66
2021/07/06 06:58:17;;;;;;;;;4.50;3.75;;;;;18.71;52.15;100226.00;5045514;28;45268;-66
2021/07/06 07:00:42;;;;;;;;;2.75;2.75;;;;;18.83;51.99;100227.78;5044378;28;45642;-67
2021/07/06 07:03:08;;;;;;;;;2.00;2.00;;;;;18.83;51.22;100225.16;5058325;28;62153;-67
2021/07/06 07:05:33;;;;;;;;;4.50;2.00;;;;;18.93;51.68;100234.06;5056892;28;45340;-67
2021/07/06 07:07:59;;;;;;;;;4.25;3.00;;;;;18.94;51.14;100229.66;5058481;28;45332;-66
2021/07/06 07:10:25;;;;;;;;;3.00;2.50;;;;;18.87;51.49;100234.50;5051055;28;45556;-68
2021/07/06 07:12:53;;;;;;;;;6.75;3.75;;;;;18.81;51.66;100248.91;5058159;28;45439;-68
2021/07/06 07:15:18;;;;;;;;;5.75;3.00;;;;;18.81;51.66;100248.09;5059688;28;45451;-68
2021/07/06 07:17:44;;;;;;;;;1.75;0.25;;;;;18.90;51.78;100242.19;5060022;28;45466;-66
2021/07/06 07:20:11;;;;;;;;;3.25;2.25;;;;;18.99;51.81;100248.59;5059187;28;56107;-66
2021/07/06 07:22:37;;;;;;;;;1.50;1.50;;;;;18.92;52.30;100258.72;5059701;28;45249;-66
2021/07/06 07:25:03;;;;;;;;;4.00;2.25;;;;;19.02;52.54;100259.78;5059277;28;45565;-66
2021/07/06 07:27:28;;;;;;;;;2.75;2.50;;;;;19.17;52.36;100262.25;5059847;28;45350;-66
2021/07/06 07:29:53;;;;;;;;;2.50;2.00;;;;;19.27;51.79;100261.50;5058527;28;62989;-67
2021/07/06 07:32:19;;;;;;;;;2.00;2.00;;;;;19.20;51.99;100269.94;5059590;28;45261;-67
2021/07/06 07:34:44;;;;;;;;;4.75;2.50;;;;;19.16;52.53;100269.31;5059097;28;56925;-67
2021/07/06 07:37:10;;;;;;;;;5.00;3.00;;;;;19.15;52.54;100270.28;5059547;28;45430;-66
2021/07/06 07:39:37;;;;;;;;;4.00;4.00;;;;;19.33;51.98;100281.31;5053225;28;45476;-67
2021/07/06 07:42:04;;;;;;;;;2.25;2.25;;;;;19.51;51.72;100274.72;5057717;28;45605;-62
2021/07/06 07:44:29;;;;;;;;;4.00;3.75;;;;;19.61;51.80;100267.84;5056082;28;46420;-64
2021/07/06 07:46:55;;;;;;;;;2.75;2.75;;;;;19.77;50.81;100274.66;5057563;28;45243;-64
2021/07/06 07:49:20;;;;;;;;;7.25;4.00;;;;;19.88;51.06;100288.75;5056627;28;45204;-66
2021/07/06 07:51:46;;;;;;;;;0.25;0.00;;;;;20.02;50.51;100285.06;5057441;28;53124;-66
2021/07/06 07:54:11;;;;;;;;;6.75;3.25;;;;;20.05;49.55;100284.88;5057796;28;45426;-67
2021/07/06 07:56:36;;;;;;;;;6.00;2.00;;;;;19.92;50.07;100281.44;5059056;28;57561;-67
2021/07/06 07:59:02;;;;;;;;;1.50;1.50;;;;;19.82;50.28;100283.06;5047563;28;45217;-68
2021/07/06 08:01:27;;;;;;;;;8.25;2.50;;;;;19.87;49.88;100280.94;5052539;28;45397;-68
2021/07/06 08:03:53;;;;;;;;;4.25;2.75;;;;;19.78;49.82;100287.72;5051027;28;46368;-68
2021/07/06 08:06:18;;;;;;;;;4.00;4.00;;;;;19.68;50.57;100292.84;5056734;28;45252;-67
2021/07/06 08:08:44;;;;;;;;;4.00;2.25;;;;;19.65;50.74;100298.34;5058674;28;59271;-67
2021/07/06 08:11:09;;;;;;;;;5.25;2.00;;;;;19.74;50.75;100318.75;5056986;28;45608;-67
2021/07/06 08:13:34;;;;;;;;;6.50;5.50;;;;;19.79;50.56;100314.94;5058833;28;60634;-68
2021/07/06 08:16:00;;;;;;;;;2.25;1.75;;;;;19.78;50.57;100308.81;5058924;28;45393;-67
2021/07/06 08:18:25;;;;;;;;;4.75;2.00;;;;;19.77;50.76;100317.69;5059165;28;45476;-68
2021/07/06 08:20:51;;;;;;;;;5.00;2.25;;;;;19.81;50.74;100320.94;5058316;28;60977;-68
2021/07/06 08:23:16;;;;;;;;;3.25;3.25;;;;;19.75;50.55;100330.13;5059072;28;45289;-67
2021/07/06 08:25:42;;;;;;;;;5.75;3.50;;;;;19.87;50.76;100329.25;5059150;28;45343;-67
2021/07/06 08:28:07;;;;;;;;;8.50;4.00;;;;;19.96;50.65;100331.22;5059325;28;45417;-67
2021/07/06 08:30:33;;;;;;;;;4.75;2.25;;;;;19.91;50.31;100341.25;5055195;28;50964;-67
2021/07/06 08:32:58;;;;;;;;;2.75;2.75;;;;;19.93;50.94;100343.78;5048689;28;45321;-67
2021/07/06 08:35:23;;;;;;;;;5.25;3.25;;;;;20.05;50.43;100356.09;5048589;28;45231;-67
2021/07/06 08:37:49;;;;;;;;;5.75;1.25;;;;;20.05;48.97;100343.75;5054228;28;59326;-67
2021/07/06 08:40:14;;;;;;;;;6.00;4.75;;;;;20.07;49.69;100345.44;5051013;28;45254;-67
2021/07/06 08:42:40;;;;;;;;;4.00;4.00;;;;;20.03;50.20;100344.81;5057293;28;46346;-67
2021/07/06 08:45:07;;;;;;;;;5.50;3.25;;;;;20.08;49.79;100347.13;5047063;28;45402;-67
2021/07/06 08:47:32;;;;;;;;;4.75;2.75;;;;;20.02;49.79;100349.25;5046906;28;45343;-67
2021/07/06 08:49:58;;;;;;;;;3.75;2.00;;;;;20.01;49.35;100351.97;5043314;28;60457;-67
2021/07/06 08:52:23;;;;;;;;;4.75;4.75;;;;;20.03;49.51;100360.66;5030239;28;66857;-67
2021/07/06 08:54:49;;;;;;;;;4.75;4.75;;;;;20.09;49.74;100364.63;5028794;28;57713;-78
2021/07/06 08:57:15;;;;;;;;;6.00;3.00;;;;;20.09;49.71;100367.25;5039128;28;45416;-67
2021/07/06 08:59:40;;;;;;;;;6.00;4.00;;;;;19.95;49.58;100362.97;5048093;28;45581;-67
2021/07/06 09:02:07;;;;;;;;;0.25;0.25;;;;;19.70;50.29;100377.94;5045733;28;46841;-67
2021/07/06 09:04:45;;;;;;;;;3.75;1.75;;;;;19.55;51.12;100376.38;5058100;28;45391;-67
2021/07/06 09:07:11;;;;;;;;;6.00;2.50;;;;;19.57;51.01;100377.09;5054330;28;45487;-66
2021/07/06 09:09:37;;;;;;;;;6.50;2.50;;;;;19.70;51.27;100395.53;5054062;28;45501;-66
2021/07/06 09:12:02;;;;;;;;;8.75;4.00;;;;;19.88;51.15;100388.13;5056062;28;64699;-66
2021/07/06 09:14:29;;;;;;;;;5.50;4.00;;;;;19.99;50.83;100385.53;5060446;28;45510;-66
2021/07/06 09:17:10;;;;;;;;;8.25;2.75;;;;;20.14;50.37;100391.50;5062314;28;45322;-66
2021/07/06 09:19:36;;;;;;;;;6.75;2.50;;;;;20.23;50.21;100393.50;5062041;28;45206;-66
2021/07/06 09:22:22;;;;;;;;;3.25;2.50;;;;;20.18;49.61;100390.31;5047225;28;46515;-66
2021/07/06 09:24:58;;;;;;;;;5.50;3.00;;;;;20.10;49.56;100397.97;5045876;28;45333;-66
2021/07/06 09:27:26;;;;;;;;;3.25;3.25;;;;;20.24;49.66;100389.91;5047084;28;45474;-63
2021/07/06 09:30:14;;;;;;;;;3.50;3.50;;;;;20.52;49.26;100392.19;5051263;28;45245;-63
2021/07/06 09:32:50;;;;;;;;;8.00;3.00;;;;;20.86;48.21;100392.31;5061315;28;46247;-62
2021/07/06 09:35:24;;;;;;;;;5.00;2.00;;;;;21.04;47.90;100393.56;5049869;28;45521;-63
2021/07/06 09:37:53;;;;;;;;;6.25;2.00;;;;;21.23;47.56;100395.63;5049406;28;45166;-63
2021/07/06 09:40:31;;;;;;;;;4.00;3.00;;;;;21.45;47.21;100385.09;5048978;28;45500;-63
2021/07/06 09:43:12;;;;;;;;;3.25;3.25;;;;;21.67;45.77;100389.53;5050599;28;45396;-63
2021/07/06 09:45:37;;;;;;;;;5.25;4.00;;;;;21.79;46.35;100396.47;5039723;28;45451;-63
2021/07/06 09:48:04;;;;;;;;;4.00;2.00;;;;;21.90;45.02;100381.56;5038859;28;45504;-63
2021/07/06 09:50:30;;;;;;;;;1.50;1.50;;;;;21.99;44.19;100402.81;5036260;28;45340;-63
2021/07/06 09:52:55;;;;;;;;;4.50;3.50;;;;;21.84;44.64;100394.34;5048767;28;65757;-64
2021/07/06 09:55:20;;;;;;;;;4.75;2.00;;;;;21.84;44.81;100388.19;5031858;28;64387;-62
2021/07/06 09:57:46;;;;;;;;;4.00;2.25;;;;;21.89;44.61;100387.81;5044800;28;61578;-62
2021/07/06 10:00:15;;;;;;;;;3.50;2.00;;;;;21.84;45.08;100393.50;5050255;28;45327;-62
2021/07/06 10:02:41;;;;;;;;;1.50;1.00;;;;;21.71;44.09;100395.41;5052110;28;46509;-63
2021/07/06 10:05:08;;;;;;;;;1.00;1.00;;;;;21.47;44.48;100393.75;5051392;28;45291;-63
2021/07/06 10:07:36;;;;;;;;;3.75;3.25;;;;;21.38;44.70;100393.63;5051492;28;45518;-63
2021/07/06 10:10:04;;;;;;;;;5.00;2.00;;;;;21.31;45.22;100393.25;5048873;28;45297;-63
2021/07/06 10:12:29;;;;;;;;;2.00;1.00;;;;;21.35;44.66;100404.44;5041580;28;47491;-63
2021/07/06 10:14:55;;;;;;;;;2.00;2.00;;;;;21.36;45.00;100406.13;5039548;28;60616;-67
2021/07/06 10:17:21;;;;;;;;;2.50;2.50;;;;;21.39;45.07;100412.00;5047010;28;55652;-72
2021/07/06 10:19:46;;;;;;;;;2.25;2.25;;;;;21.38;44.75;100415.59;5051389;28;45441;-65
2021/07/06 10:22:12;;;;;;;;;4.75;3.00;;;;;21.40;45.55;100423.41;5023175;28;47325;-65
2021/07/06 10:24:45;;;;;;;;;4.00;2.00;;;;;21.41;45.27;100433.88;5012955;28;45294;-67
2021/07/06 10:27:22;;;;;;;;;1.50;1.50;;;;;21.52;44.77;100419.81;5019956;28;45508;-63
2021/07/06 10:29:48;;;;;;;;;2.25;2.25;;;;;21.47;45.17;100430.78;5025840;28;45687;-65
2021/07/06 10:32:39;;;;;;;;;2.75;2.00;;;;;21.43;44.37;100431.13;5048637;28;45487;-66
2021/07/06 10:35:09;;;;;;;;;2.50;2.00;;;;;21.67;44.83;100423.91;5024331;28;45492;-65
2021/07/06 10:37:35;;;;;;;;;1.75;1.75;;;;;22.04;44.78;100435.09;5030036;28;45479;-62
2021/07/06 10:40:23;;;;;;;;;1.00;1.00;;;;;22.06;42.37;100429.69;5021033;28;45414;-63
2021/07/06 10:42:50;;;;;;;;;1.75;1.00;;;;;21.92;43.39;100428.09;5046408;28;46240;-64
2021/07/06 10:45:23;;;;;;;;;3.50;3.50;;;;;21.93;44.15;100436.88;5021425;28;45531;-63
2021/07/06 10:47:52;;;;;;;;;5.00;2.50;;;;;21.75;43.72;100444.47;5015004;28;45400;-63
2021/07/06 10:50:29;;;;;;;;;3.75;2.25;;;;;21.59;44.06;100436.03;5037278;28;45447;-63
2021/07/06 10:53:20;;;;;;;;;5.50;3.00;;;;;21.80;44.13;100447.59;5049780;28;46393;-63
2021/07/06 10:56:11;;;;;;;;;2.25;2.00;;;;;22.04;43.83;100439.53;5048464;28;45786;-65
2021/07/06 10:58:56;;;;;;;;;3.00;2.00;;;;;22.21;43.55;100451.41;5051012;28;45483;-65
2021/07/06 11:01:37;;;;;;;;;6.25;4.00;;;;;22.35;43.81;100445.84;5037769;28;45391;-65
2021/07/06 11:04:06;;;;;;;;;2.00;2.00;;;;;22.55;42.97;100454.81;5039185;28;47443;-64
2021/07/06 11:06:44;;;;;;;;;2.00;1.00;;;;;22.38;41.81;100454.38;5030036;28;45261;-65
2021/07/06 11:09:13;;;;;;;;;2.75;2.00;;;;;22.24;42.50;100452.03;5050415;28;45428;-65
2021/07/06 11:11:39;;;;;;;;;4.00;2.00;;;;;22.25;42.49;100451.06;5011775;28;45537;-64
2021/07/06 11:14:17;;;;;;;;;3.50;2.00;;;;;22.32;42.67;100448.75;5021089;28;65481;-65
2021/07/06 11:16:43;;;;;;;;;0.00;0.00;;;;;22.43;43.17;100468.09;5060106;28;45366;-64
2021/07/06 11:19:37;;;;;;;;;1.00;1.00;;;;;22.50;42.11;100454.34;5037665;28;63466;-63
2021/07/06 11:22:12;;;;;;;;;2.25;2.25;;;;;22.51;42.39;100454.22;5053963;28;45324;-63
2021/07/06 11:24:47;;;;;;;;;12.25;10.75;;;;;22.65;42.40;100456.59;5059936;28;45587;-63
2021/07/06 11:27:55;;;;;;;;;3.00;3.00;;;;;22.69;41.60;100470.44;5059547;28;45455;-63